Time;durP1;ratioP1;P1;durP2;ratioP2;P2;SDS_P1;SDS_P2;PMS_P1;PMS_P2;Temp;Humidity;BMP_temperature;BMP_pressure;BME280_temperature;BME280_humidity;BME280_pressure;Samples;Min_cycle;Max_cycle;Signal;HPM_P1;HPM_P2
2022/08/18 00:00:44;;;;;;;23.77;21.38;;;23.70;90.10;;;;;;4977769;28;20042;-76
2022/08/18 00:03:12;;;;;;;25.73;22.98;;;23.70;90.10;;;;;;4984825;28;20088;-75
2022/08/18 00:05:38;;;;;;;23.33;20.85;;;23.70;90.40;;;;;;4967462;28;20058;-76
2022/08/18 00:08:05;;;;;;;24.88;22.30;;;23.70;90.20;;;;;;4985647;28;20053;-76
2022/08/18 00:10:32;;;;;;;27.15;24.45;;;23.70;90.20;;;;;;4974262;28;20089;-76
2022/08/18 00:12:58;;;;;;;27.02;24.33;;;23.70;90.10;;;;;;4982263;28;20031;-76
2022/08/18 00:15:25;;;;;;;25.42;22.77;;;23.70;90.10;;;;;;4967979;28;20089;-75
2022/08/18 00:17:51;;;;;;;25.55;22.88;;;23.70;90.10;;;;;;4961289;28;20030;-76
2022/08/18 00:20:20;;;;;;;30.10;23.35;;;23.60;90.10;;;;;;4987394;28;20031;-76
2022/08/18 00:22:46;;;;;;;26.70;23.90;;;23.60;90.10;;;;;;4969323;28;20034;-76
2022/08/18 00:25:15;;;;;;;25.45;22.83;;;23.60;90.20;;;;;;4967085;28;20046;-75
2022/08/18 00:27:41;;;;;;;24.92;22.33;;;23.60;90.20;;;;;;4969941;28;20063;-75
2022/08/18 00:30:17;;;;;;;24.92;22.33;;;23.60;90.20;;;;;;4978718;28;20063;-76
2022/08/18 00:32:49;;;;;;;26.10;23.33;;;23.60;90.20;;;;;;4965644;28;20043;-75
2022/08/18 00:35:25;;;;;;;26.83;24.13;;;23.60;90.20;;;;;;4966688;28;20089;-76
2022/08/18 00:37:51;;;;;;;29.52;24.45;;;23.60;90.20;;;;;;4967365;28;20031;-75
2022/08/18 00:40:23;;;;;;;26.30;23.65;;;23.60;90.20;;;;;;4961998;28;20081;-75
2022/08/18 00:42:52;;;;;;;26.17;23.48;;;23.60;90.20;;;;;;4967837;28;20062;-74
2022/08/18 00:45:22;;;;;;;27.83;25.02;;;23.60;90.20;;;;;;4959670;28;20157;-75
2022/08/18 00:47:48;;;;;;;26.58;23.73;;;23.60;90.30;;;;;;4975077;28;20033;-76
2022/08/18 00:50:27;;;;;;;27.20;24.15;;;23.50;90.20;;;;;;4966124;28;20027;-76
2022/08/18 00:53:20;;;;;;;23.80;21.40;;;23.60;90.20;;;;;;4970309;28;20394;-75
2022/08/18 00:55:47;;;;;;;24.67;22.13;;;23.60;90.30;;;;;;4971905;28;20031;-75
2022/08/18 00:58:23;;;;;;;26.33;22.35;;;23.50;90.20;;;;;;4966336;28;20517;-75
2022/08/18 01:00:50;;;;;;;24.55;21.42;;;23.50;90.30;;;;;;4976222;28;20544;-75
2022/08/18 01:03:19;;;;;;;23.90;21.50;;;23.50;90.30;;;;;;4967430;28;20038;-76
2022/08/18 01:05:58;;;;;;;25.85;23.25;;;23.50;90.30;;;;;;4980549;28;20035;-75
2022/08/18 01:08:25;;;;;;;24.45;21.42;;;23.50;90.60;;;;;;4982672;28;20565;-75
2022/08/18 01:10:50;;;;;;;23.50;21.13;;;23.50;90.30;;;;;;4978241;28;20042;-75
2022/08/18 01:13:17;;;;;;;25.08;22.02;;;23.50;90.30;;;;;;4976145;28;20034;-75
2022/08/18 01:15:43;;;;;;;25.35;22.77;;;23.50;90.30;;;;;;4963572;28;20022;-75
2022/08/18 01:24:07;;;;;;;25.08;22.48;;;23.40;90.40;;;;;;4969679;28;20097;-75
2022/08/18 01:26:36;;;;;;;24.25;21.85;;;23.50;90.40;;;;;;4972667;28;20117;-75
2022/08/18 01:29:10;;;;;;;24.65;22.05;;;23.40;90.60;;;;;;4974689;28;20061;-75
2022/08/18 01:31:56;;;;;;;25.02;22.00;;;23.40;90.40;;;;;;4969033;28;20610;-75
2022/08/18 01:34:24;;;;;;;22.75;20.38;;;23.40;90.40;;;;;;4972942;28;20173;-76
2022/08/18 01:36:52;;;;;;;23.10;20.83;;;23.40;90.40;;;;;;4972243;28;20485;-75
2022/08/18 01:39:18;;;;;;;23.95;21.35;;;23.40;90.70;;;;;;4974931;28;20042;-75
2022/08/18 01:41:44;;;;;;;24.17;21.77;;;23.40;90.40;;;;;;4981191;28;20031;-75
2022/08/18 01:44:10;;;;;;;22.15;19.85;;;23.40;90.40;;;;;;4987944;28;20038;-75
2022/08/18 01:46:40;;;;;;;25.02;22.42;;;23.40;90.40;;;;;;4968075;28;20509;-75
2022/08/18 01:49:07;;;;;;;24.42;21.90;;;23.40;90.50;;;;;;4988464;28;20043;-75
2022/08/18 01:51:36;;;;;;;23.30;21.00;;;23.40;90.40;;;;;;4974224;28;20030;-75
2022/08/18 01:54:04;;;;;;;23.98;21.58;;;23.40;90.40;;;;;;4974638;28;20049;-75
2022/08/18 01:56:30;;;;;;;23.75;21.30;;;23.40;90.50;;;;;;4977976;28;20061;-75
2022/08/18 01:58:56;;;;;;;26.27;23.58;;;23.30;90.70;;;;;;4972558;28;20046;-75
2022/08/18 02:01:23;;;;;;;27.08;24.30;;;23.30;90.40;;;;;;4973591;28;20497;-75
2022/08/18 02:03:54;;;;;;;26.05;23.40;;;23.30;90.40;;;;;;4973263;28;20406;-75
2022/08/18 02:06:19;;;;;;;26.48;23.77;;;23.30;90.40;;;;;;4969810;28;20038;-75
2022/08/18 02:08:46;;;;;;;26.38;23.65;;;23.30;90.50;;;;;;4971896;28;20111;-75
2022/08/18 02:11:12;;;;;;;24.33;21.80;;;23.30;90.50;;;;;;4972374;28;20030;-75
2022/08/18 02:13:39;;;;;;;24.33;21.67;;;23.30;90.50;;;;;;4972198;28;20085;-75
2022/08/18 02:16:06;;;;;;;25.52;21.83;;;23.30;90.50;;;;;;4970188;28;20484;-75
2022/08/18 02:18:34;;;;;;;25.20;22.63;;;23.30;90.60;;;;;;4976723;28;20078;-75
2022/08/18 02:21:08;;;;;;;25.88;22.45;;;23.20;90.50;;;;;;4967343;28;20449;-75
2022/08/18 02:23:34;;;;;;;26.45;23.67;;;23.30;90.50;;;;;;4971275;28;20110;-75
2022/08/18 02:26:07;;;;;;;26.83;24.05;;;23.20;90.50;;;;;;4968256;28;20122;-75
2022/08/18 02:28:33;;;;;;;26.02;23.42;;;23.20;90.50;;;;;;4966910;28;20034;-75
2022/08/18 02:31:13;;;;;;;26.60;23.48;;;23.20;90.50;;;;;;4971952;28;20090;-75
2022/08/18 02:33:39;;;;;;;26.27;23.58;;;23.20;90.50;;;;;;4968610;28;20055;-75
2022/08/18 02:36:08;;;;;;;25.88;23.27;;;23.20;90.60;;;;;;4983098;28;20039;-75
2022/08/18 02:38:34;;;;;;;24.27;21.75;;;23.20;90.60;;;;;;4973279;28;20023;-75
2022/08/18 02:41:03;;;;;;;27.33;23.75;;;23.20;90.60;;;;;;4971957;28;20442;-75
2022/08/18 02:43:29;;;;;;;25.55;22.85;;;23.20;90.60;;;;;;4970509;28;20047;-75
2022/08/18 02:45:55;;;;;;;25.13;22.63;;;23.20;90.60;;;;;;4971463;28;20062;-75
2022/08/18 02:48:35;;;;;;;27.95;25.05;;;23.20;90.60;;;;;;4966980;28;20058;-75
2022/08/18 02:51:04;;;;;;;24.40;21.80;;;23.20;90.60;;;;;;4968601;28;20054;-75
2022/08/18 02:53:29;;;;;;;24.23;21.70;;;23.10;90.60;;;;;;4970867;28;20575;-75
2022/08/18 02:58:45;;;;;;;25.33;22.83;;;23.10;90.60;;;;;;4969993;28;20038;-76
2022/08/18 03:01:11;;;;;;;25.05;22.45;;;23.10;90.60;;;;;;4971710;28;20085;-75
2022/08/18 03:03:37;;;;;;;26.15;23.55;;;23.10;90.60;;;;;;4975523;28;20117;-75
2022/08/18 03:06:04;;;;;;;26.80;23.83;;;23.10;90.60;;;;;;4973180;28;20058;-75
2022/08/18 03:08:31;;;;;;;24.30;21.80;;;23.10;90.60;;;;;;4974661;28;20489;-75
2022/08/18 03:10:57;;;;;;;25.85;23.15;;;23.10;90.60;;;;;;4983312;28;20125;-75
2022/08/18 03:13:24;;;;;;;24.85;22.33;;;23.10;90.60;;;;;;4973165;28;20031;-76
2022/08/18 03:15:50;;;;;;;24.83;22.25;;;23.10;90.60;;;;;;4985552;28;20062;-75
2022/08/18 03:18:16;;;;;;;23.73;21.17;;;23.00;90.60;;;;;;4967209;28;20513;-75
2022/08/18 03:20:44;;;;;;;25.27;22.20;;;23.00;90.60;;;;;;4970560;28;20504;-75
2022/08/18 03:23:10;;;;;;;24.83;22.15;;;23.00;90.70;;;;;;4970666;28;20464;-75
2022/08/18 03:25:42;;;;;;;24.80;22.25;;;23.00;90.70;;;;;;4978554;28;20094;-75
2022/08/18 03:28:07;;;;;;;25.63;21.35;;;23.00;90.60;;;;;;4985171;28;20035;-75
2022/08/18 03:30:33;;;;;;;23.42;21.00;;;23.00;90.70;;;;;;4970810;28;20038;-75
2022/08/18 03:32:59;;;;;;;25.05;22.55;;;23.00;90.70;;;;;;4969188;28;20114;-75
2022/08/18 03:35:25;;;;;;;24.48;21.92;;;23.00;90.70;;;;;;4974503;28;20058;-75
2022/08/18 03:37:50;;;;;;;25.10;22.55;;;23.00;90.70;;;;;;4984884;28;20114;-75
2022/08/18 03:40:16;;;;;;;23.20;20.75;;;23.00;90.70;;;;;;4975588;28;20445;-75
2022/08/18 03:42:42;;;;;;;25.58;22.85;;;23.00;90.70;;;;;;4970424;28;20114;-75
2022/08/18 03:45:08;;;;;;;25.10;22.58;;;22.90;90.70;;;;;;4976009;28;20504;-75
2022/08/18 03:47:34;;;;;;;26.60;23.90;;;22.90;90.70;;;;;;4973905;28;20023;-75
2022/08/18 03:50:00;;;;;;;25.63;22.40;;;22.90;90.70;;;;;;4975686;28;20026;-75
2022/08/18 03:52:25;;;;;;;28.15;24.17;;;22.90;90.70;;;;;;4975593;28;20387;-75
2022/08/18 03:54:52;;;;;;;25.73;23.02;;;22.90;90.70;;;;;;4967644;28;20180;-75
2022/08/18 03:57:17;;;;;;;26.95;23.88;;;22.90;90.80;;;;;;4977944;28;20086;-75
2022/08/18 03:59:43;;;;;;;25.67;22.98;;;22.90;90.70;;;;;;4969419;28;20023;-75
2022/08/18 04:02:10;;;;;;;25.45;22.83;;;22.90;90.80;;;;;;4978199;28;20080;-75
2022/08/18 04:04:36;;;;;;;25.67;23.08;;;22.90;90.70;;;;;;4971190;28;20063;-75
2022/08/18 04:07:07;;;;;;;27.80;24.80;;;22.90;90.70;;;;;;4970587;28;20031;-75
2022/08/18 04:09:35;;;;;;;25.42;22.88;;;22.90;90.70;;;;;;4972069;28;20022;-75
2022/08/18 04:12:12;;;;;;;25.33;22.70;;;22.90;90.70;;;;;;4969913;28;20034;-75
2022/08/18 04:14:40;;;;;;;24.40;21.90;;;22.90;91.10;;;;;;4972791;28;20370;-75
2022/08/18 04:17:07;;;;;;;25.25;22.65;;;22.90;90.80;;;;;;4989230;28;20141;-75
2022/08/18 04:19:33;;;;;;;26.70;23.05;;;22.90;90.80;;;;;;4973666;28;20031;-75
2022/08/18 04:22:01;;;;;;;24.65;22.08;;;22.90;90.80;;;;;;4968799;28;20386;-75
2022/08/18 04:24:29;;;;;;;27.05;21.75;;;22.90;90.90;;;;;;4981100;28;20027;-75
2022/08/18 04:26:57;;;;;;;25.77;23.08;;;22.90;90.90;;;;;;4970026;28;20027;-75
2022/08/18 04:29:23;;;;;;;25.13;22.10;;;22.90;90.90;;;;;;4989316;28;20030;-75
2022/08/18 04:31:50;;;;;;;26.90;23.50;;;22.80;90.90;;;;;;4971777;28;20509;-75
2022/08/18 04:34:19;;;;;;;24.90;22.27;;;22.80;90.90;;;;;;4986449;28;20046;-75
2022/08/18 04:36:45;;;;;;;24.52;21.95;;;22.80;90.90;;;;;;4973423;28;20030;-75
2022/08/18 04:39:12;;;;;;;26.98;24.10;;;22.80;90.90;;;;;;4967929;28;20031;-75
2022/08/18 04:41:40;;;;;;;26.65;23.05;;;22.80;90.90;;;;;;4968888;28;20030;-75
2022/08/18 04:44:08;;;;;;;26.88;23.77;;;22.80;91.00;;;;;;4979517;28;20489;-75
2022/08/18 04:46:39;;;;;;;25.35;22.75;;;22.80;91.00;;;;;;4986465;28;20046;-75
2022/08/18 04:49:05;;;;;;;26.15;23.38;;;22.80;90.90;;;;;;4967416;28;20034;-75
2022/08/18 04:51:30;;;;;;;28.05;25.10;;;22.80;91.00;;;;;;4965608;28;20162;-75
2022/08/18 04:53:59;;;;;;;27.63;24.75;;;22.70;90.90;;;;;;4966407;28;20122;-75
2022/08/18 04:56:34;;;;;;;28.58;25.52;;;22.70;90.90;;;;;;4968002;28;20165;-75
2022/08/18 04:59:11;;;;;;;29.70;26.65;;;22.80;90.90;;;;;;4970037;28;20031;-75
2022/08/18 05:01:40;;;;;;;29.05;25.80;;;22.80;91.20;;;;;;4974387;28;20029;-75
2022/08/18 05:04:07;;;;;;;29.30;26.30;;;22.70;90.90;;;;;;4976686;28;20023;-75
2022/08/18 05:06:33;;;;;;;38.13;28.63;;;22.70;90.90;;;;;;4966721;28;20506;-75
2022/08/18 05:09:04;;;;;;;30.05;26.48;;;22.70;91.20;;;;;;4968459;28;20565;-75
2022/08/18 05:11:33;;;;;;;31.30;28.05;;;22.70;90.90;;;;;;4971920;28;20034;-76
2022/08/18 05:14:02;;;;;;;30.05;26.85;;;22.70;90.90;;;;;;4969989;28;20038;-75
2022/08/18 05:16:31;;;;;;;32.45;29.10;;;22.80;91.00;;;;;;4972466;28;20113;-75
2022/08/18 05:18:58;;;;;;;35.13;29.98;;;22.70;91.00;;;;;;4978831;28;20445;-75
2022/08/18 05:21:40;;;;;;;38.70;31.70;;;22.70;90.90;;;;;;4996104;23;20034;-83
2022/08/18 05:24:07;;;;;;;36.15;32.25;;;22.70;91.00;;;;;;5031564;28;20053;-83
2022/08/18 05:26:34;;;;;;;34.65;31.05;;;22.70;91.00;;;;;;4999664;28;20022;-83
2022/08/18 05:28:59;;;;;;;34.47;30.73;;;22.70;91.00;;;;;;5024564;28;20107;-82
2022/08/18 05:31:27;;;;;;;31.83;28.15;;;22.70;91.20;;;;;;5007876;28;20029;-81
2022/08/18 05:33:54;;;;;;;31.73;28.38;;;22.70;91.00;;;;;;5025978;28;20030;-83
2022/08/18 05:36:45;;;;;;;32.13;28.73;;;22.70;91.00;;;;;;5006456;28;20056;-83
2022/08/18 05:39:17;;;;;;;32.17;28.73;;;22.70;91.10;;;;;;5008704;28;20482;-81
2022/08/18 05:41:47;;;;;;;29.55;26.45;;;22.70;91.10;;;;;;5012679;28;20038;-83
2022/08/18 05:44:17;;;;;;;32.00;27.80;;;22.70;91.00;;;;;;5002241;28;20019;-83
2022/08/18 05:47:09;;;;;;;31.83;27.17;;;22.70;91.00;;;;;;5005096;28;20036;-82
2022/08/18 05:49:38;;;;;;;31.88;26.95;;;22.70;91.10;;;;;;5001439;28;20344;-83
2022/08/18 05:52:35;;;;;;;31.17;27.85;;;22.70;91.00;;;;;;5023698;28;20050;-83
2022/08/18 05:58:04;;;;;;;34.25;29.15;;;22.70;91.00;;;;;;4999950;28;20045;-83
2022/08/18 06:00:31;;;;;;;33.25;29.00;;;22.60;91.10;;;;;;5011231;28;20023;-83
2022/08/18 06:03:18;;;;;;;36.42;29.73;;;22.70;91.10;;;;;;4996572;28;20026;-83
2022/08/18 06:06:16;;;;;;;35.42;30.88;;;22.60;91.10;;;;;;4995526;28;20023;-83
2022/08/18 06:09:11;;;;;;;32.78;28.23;;;22.60;91.10;;;;;;4994192;28;20049;-83
2022/08/18 06:11:39;;;;;;;34.40;27.90;;;22.60;91.10;;;;;;4992348;28;20026;-82
2022/08/18 06:14:15;;;;;;;33.78;29.88;;;22.60;91.10;;;;;;5003223;28;20030;-81
2022/08/18 06:17:02;;;;;;;34.45;30.75;;;22.60;91.10;;;;;;4988972;28;20034;-81
2022/08/18 06:19:45;;;;;;;33.45;29.85;;;22.60;91.10;;;;;;4990239;28;20487;-81
2022/08/18 06:22:29;;;;;;;34.88;31.08;;;22.60;91.20;;;;;;4992134;28;20050;-82
2022/08/18 06:25:22;;;;;;;34.13;29.35;;;22.60;91.20;;;;;;5013058;28;20034;-82
2022/08/18 06:27:57;;;;;;;34.03;29.67;;;22.60;91.20;;;;;;4992339;28;20556;-82
2022/08/18 06:30:54;;;;;;;36.30;30.40;;;22.60;91.20;;;;;;4998780;28;20028;-83
2022/08/18 06:33:44;;;;;;;37.70;32.17;;;22.60;91.20;;;;;;5006029;28;20026;-82
2022/08/18 06:36:17;;;;;;;41.80;32.03;;;22.60;91.30;;;;;;4982318;28;20073;-83
2022/08/18 06:39:20;;;;;;;37.58;32.63;;;22.60;91.30;;;;;;5006442;28;20023;-83
2022/08/18 06:41:53;;;;;;;41.90;33.75;;;22.60;91.30;;;;;;5004131;28;20042;-82
2022/08/18 06:44:33;;;;;;;48.47;35.97;;;22.60;91.30;;;;;;5006725;28;20391;-82
2022/08/18 06:47:21;;;;;;;41.42;33.55;;;22.60;91.40;;;;;;4998304;28;20025;-83
2022/08/18 06:49:56;;;;;;;46.63;34.05;;;22.60;91.40;;;;;;4999093;28;20482;-82
2022/08/18 06:52:29;;;;;;;43.65;34.85;;;22.60;91.40;;;;;;4998821;28;20040;-82
2022/08/18 06:55:10;;;;;;;45.03;36.67;;;22.60;91.40;;;;;;4993694;28;20126;-83
2022/08/18 06:57:52;;;;;;;42.83;34.70;;;22.60;91.40;;;;;;4994536;28;20035;-83
2022/08/18 07:00:49;;;;;;;46.58;35.63;;;22.50;91.40;;;;;;4999800;28;20379;-82
2022/08/18 07:03:16;;;;;;;49.45;36.83;;;22.60;91.40;;;;;;4994457;28;20038;-82
2022/08/18 07:06:05;;;;;;;49.42;37.13;;;22.50;91.40;;;;;;5000725;28;20018;-82
2022/08/18 07:08:50;;;;;;;46.78;35.08;;;22.60;91.50;;;;;;5000337;28;20060;-83
2022/08/18 07:11:26;;;;;;;53.60;38.20;;;22.60;91.60;;;;;;4989620;28;20045;-83
2022/08/18 07:14:17;;;;;;;50.28;36.63;;;22.60;91.60;;;;;;5001249;28;20509;-83
2022/08/18 07:16:54;;;;;;;56.47;40.47;;;22.50;91.40;;;;;;4987701;28;20489;-83
2022/08/18 07:19:29;;;;;;;60.60;41.13;;;22.50;91.40;;;;;;4990173;28;20029;-83
2022/08/18 07:22:07;;;;;;;61.90;42.85;;;22.60;91.50;;;;;;4989473;28;20034;-82
2022/08/18 07:24:44;;;;;;;61.95;42.45;;;22.50;91.60;;;;;;4987500;28;20046;-82
2022/08/18 07:27:19;;;;;;;59.78;41.22;;;22.50;91.60;;;;;;4999304;28;20044;-82
2022/08/18 07:30:18;;;;;;;62.80;43.92;;;22.50;91.60;;;;;;5000166;28;20053;-82
2022/08/18 07:33:03;;;;;;;62.58;43.95;;;22.50;91.60;;;;;;5015095;28;20087;-83
2022/08/18 07:39:12;;;;;;;68.35;45.00;;;22.50;91.60;;;;;;4946338;28;20055;-82
2022/08/18 07:41:43;;;;;;;69.35;46.25;;;22.50;91.70;;;;;;4944566;28;20046;-82
2022/08/18 07:44:32;;;;;;;70.75;46.55;;;22.50;91.70;;;;;;4999207;28;20763;-82
2022/08/18 07:47:09;;;;;;;66.35;44.95;;;22.50;91.70;;;;;;4994279;28;20022;-82
2022/08/18 07:49:43;;;;;;;72.63;48.88;;;22.50;91.70;;;;;;5008930;28;20026;-82
2022/08/18 07:52:30;;;;;;;69.90;47.42;;;22.40;91.70;;;;;;4992310;28;20108;-82
2022/08/18 07:55:09;;;;;;;68.53;44.95;;;22.40;92.00;;;;;;5003674;28;20504;-81
2022/08/18 07:57:48;;;;;;;70.82;46.67;;;22.40;91.70;;;;;;4989976;28;20038;-82
2022/08/18 08:00:30;;;;;;;69.55;46.90;;;22.40;91.60;;;;;;4986441;28;20081;-83
2022/08/18 08:03:21;;;;;;;73.65;46.47;;;22.50;91.70;;;;;;5002692;28;20178;-83
2022/08/18 08:06:06;;;;;;;71.70;46.58;;;22.40;91.70;;;;;;4990725;28;20227;-82
2022/08/18 08:08:53;;;;;;;69.70;46.78;;;22.40;91.70;;;;;;4989147;28;20027;-82
2022/08/18 08:11:53;;;;;;;66.30;44.78;;;22.50;91.70;;;;;;5004171;28;20033;-82
2022/08/18 08:14:30;;;;;;;67.20;46.22;;;22.40;91.70;;;;;;4994928;28;20069;-82
2022/08/18 08:17:22;;;;;;;67.50;45.97;;;22.50;91.70;;;;;;4981113;28;20039;-82
2022/08/18 08:19:48;;;;;;;71.53;48.20;;;22.50;91.70;;;;;;4990402;28;20029;-82
2022/08/18 08:22:34;;;;;;;66.95;44.85;;;22.40;91.70;;;;;;4987976;28;20574;-82
2022/08/18 08:25:22;;;;;;;67.72;46.67;;;22.40;91.70;;;;;;5001492;28;20034;-82
2022/08/18 08:28:14;;;;;;;67.40;46.17;;;22.40;91.70;;;;;;4984335;28;20548;-82
2022/08/18 08:31:06;;;;;;;65.20;45.60;;;22.40;91.70;;;;;;4992356;28;20593;-82
2022/08/18 08:33:49;;;;;;;69.22;45.55;;;22.40;91.70;;;;;;4989060;28;20034;-82
2022/08/18 08:36:48;;;;;;;70.90;46.97;;;22.40;91.70;;;;;;4972614;28;20053;-82
2022/08/18 08:39:27;;;;;;;69.75;45.38;;;22.40;91.70;;;;;;4969318;28;20073;-82
2022/08/18 08:42:15;;;;;;;67.00;45.53;;;22.40;91.70;;;;;;4977992;28;20053;-82
2022/08/18 08:44:53;;;;;;;65.25;45.55;;;22.40;91.70;;;;;;4990166;28;20091;-82
2022/08/18 08:48:06;;;;;;;68.60;45.00;;;22.40;91.70;;;;;;4993139;28;20398;-81
2022/08/18 08:50:46;;;;;;;66.53;44.80;;;22.40;91.80;;;;;;4975233;28;20038;-82
2022/08/18 08:54:04;;;;;;;69.32;47.45;;;22.40;91.80;;;;;;4987456;28;20038;-82
2022/08/18 08:56:41;;;;;;;67.25;46.65;;;22.40;91.80;;;;;;4944519;28;20042;-82
2022/08/18 08:59:14;;;;;;;68.20;46.53;;;22.40;91.80;;;;;;4992449;28;20022;-82
2022/08/18 09:02:19;;;;;;;66.35;46.35;;;22.40;91.80;;;;;;4990383;28;20026;-82
2022/08/18 09:05:00;;;;;;;63.15;45.92;;;22.40;91.80;;;;;;4994081;28;20062;-82
2022/08/18 09:08:06;;;;;;;68.50;46.30;;;22.40;91.80;;;;;;4990227;28;20031;-81
2022/08/18 09:10:49;;;;;;;68.13;47.58;;;22.40;91.90;;;;;;5010761;28;20041;-82
2022/08/18 09:14:03;;;;;;;71.57;49.63;;;22.40;91.90;;;;;;4998361;28;20571;-82
2022/08/18 09:17:28;;;;;;;66.28;45.28;;;22.40;91.90;;;;;;4987436;28;20033;-82
2022/08/18 09:20:17;;;;;;;67.25;46.70;;;22.40;91.90;;;;;;4996607;28;20046;-82
2022/08/18 09:23:08;;;;;;;71.75;48.50;;;22.40;91.90;;;;;;4989680;28;20096;-82
2022/08/18 09:25:42;;;;;;;68.13;48.22;;;22.30;91.90;;;;;;4979951;28;20065;-82
2022/08/18 09:28:22;;;;;;;68.35;47.72;;;22.40;91.90;;;;;;4988955;28;20036;-81
2022/08/18 09:31:12;;;;;;;69.25;47.47;;;22.30;91.80;;;;;;4992898;28;20022;-83
2022/08/18 09:33:44;;;;;;;67.68;46.33;;;22.30;91.90;;;;;;4992483;28;20118;-82
2022/08/18 09:36:37;;;;;;;66.47;45.78;;;22.40;91.80;;;;;;4989055;28;20050;-82
2022/08/18 09:43:00;;;;;;;68.45;47.25;;;22.40;91.90;;;;;;4987241;28;20548;-82
2022/08/18 09:45:32;;;;;;;70.72;46.20;;;22.40;91.90;;;;;;4999874;28;20057;-81
2022/08/18 09:48:34;;;;;;;66.07;45.42;;;22.40;91.80;;;;;;4993349;28;20030;-83
2022/08/18 09:51:17;;;;;;;63.45;45.55;;;22.40;91.80;;;;;;4986294;28;20073;-82
2022/08/18 09:53:51;;;;;;;71.53;50.30;;;22.40;91.80;;;;;;5000109;28;20044;-82
2022/08/18 09:56:49;;;;;;;67.15;47.72;;;22.30;91.80;;;;;;4987233;28;20069;-81
2022/08/18 09:59:52;;;;;;;71.22;49.17;;;22.40;91.90;;;;;;4985747;28;20451;-82
2022/08/18 10:02:51;;;;;;;63.88;45.05;;;22.40;91.90;;;;;;4983754;28;20041;-82
2022/08/18 10:05:32;;;;;;;70.25;46.20;;;22.30;91.80;;;;;;4989497;28;20035;-82
2022/08/18 10:08:23;;;;;;;70.22;46.50;;;22.40;91.80;;;;;;4987443;28;20026;-81
2022/08/18 10:11:21;;;;;;;70.82;47.25;;;22.40;91.90;;;;;;4983705;28;20831;-83
2022/08/18 10:14:09;;;;;;;70.55;48.42;;;22.40;91.80;;;;;;4982612;28;20042;-82
2022/08/18 10:17:03;;;;;;;72.20;47.08;;;22.40;91.80;;;;;;5002982;28;20105;-82
2022/08/18 10:19:52;;;;;;;66.95;45.72;;;22.40;91.80;;;;;;4988374;28;20422;-78
2022/08/18 10:24:58;;;;;;;71.65;48.40;;;22.40;91.80;;;;;;5070100;28;20403;-75
2022/08/18 10:27:46;;;;;;;65.85;45.97;;;22.40;91.80;;;;;;5048505;28;20022;-76
2022/08/18 10:30:34;;;;;;;68.45;46.42;;;22.40;91.90;;;;;;5049209;28;20036;-76
2022/08/18 10:33:06;;;;;;;71.70;47.90;;;22.40;91.90;;;;;;5040132;28;20066;-76
2022/08/18 10:35:35;;;;;;;69.85;47.42;;;22.30;91.80;;;;;;5042795;28;20033;-76
2022/08/18 10:38:20;;;;;;;72.72;47.53;;;22.30;91.80;;;;;;5025448;28;20056;-76
2022/08/18 10:41:00;;;;;;;63.95;43.95;;;22.30;91.90;;;;;;5042083;28;20025;-75
2022/08/18 10:43:37;;;;;;;69.45;47.13;;;22.30;91.90;;;;;;5042310;28;20060;-75
2022/08/18 10:46:03;;;;;;;66.45;46.22;;;22.30;91.90;;;;;;5042768;28;20220;-76
2022/08/18 10:48:33;;;;;;;66.82;44.83;;;22.30;91.80;;;;;;5043174;28;20018;-75
2022/08/18 10:51:14;;;;;;;64.43;45.25;;;22.30;91.80;;;;;;5042775;28;20026;-75
2022/08/18 10:53:45;;;;;;;64.45;42.17;;;22.40;91.80;;;;;;5041760;28;20032;-76
2022/08/18 10:56:27;;;;;;;63.60;44.75;;;22.40;91.80;;;;;;5040839;28;20029;-75
2022/08/18 10:59:08;;;;;;;63.92;42.72;;;22.40;91.80;;;;;;5057404;28;20108;-75
2022/08/18 11:01:54;;;;;;;59.03;41.85;;;22.40;91.70;;;;;;5045602;28;20025;-75
2022/08/18 11:04:47;;;;;;;64.65;43.65;;;22.40;91.70;;;;;;5043423;28;20041;-76
2022/08/18 11:07:18;;;;;;;65.88;43.50;;;22.40;91.80;;;;;;5047006;28;20036;-75
2022/08/18 11:09:46;;;;;;;64.40;42.40;;;22.40;91.70;;;;;;5046052;28;20036;-76
2022/08/18 11:12:13;;;;;;;59.60;41.50;;;22.40;91.60;;;;;;5044281;28;20017;-75
2022/08/18 11:14:59;;;;;;;61.83;42.90;;;22.40;91.70;;;;;;5044610;28;20116;-75
2022/08/18 11:17:46;;;;;;;58.47;41.90;;;22.40;91.70;;;;;;5042971;28;20140;-75
2022/08/18 11:20:15;;;;;;;57.45;40.45;;;22.40;91.70;;;;;;5041258;28;20033;-75
2022/08/18 11:22:53;;;;;;;60.40;42.33;;;22.40;91.70;;;;;;5061487;28;20079;-75
2022/08/18 11:25:25;;;;;;;62.17;41.38;;;22.40;91.60;;;;;;5056596;28;20037;-75
2022/08/18 11:27:51;;;;;;;57.70;39.78;;;22.40;91.70;;;;;;5052606;28;20098;-75
2022/08/18 11:30:18;;;;;;;55.30;39.15;;;22.40;91.60;;;;;;5047462;28;20444;-75
2022/08/18 11:32:45;;;;;;;59.88;41.85;;;22.40;91.60;;;;;;5047616;28;20025;-75
2022/08/18 11:35:18;;;;;;;59.22;41.30;;;22.40;91.70;;;;;;5039897;28;20025;-75
2022/08/18 11:37:44;;;;;;;54.75;38.85;;;22.40;91.70;;;;;;5000609;28;20053;-76
2022/08/18 11:40:39;;;;;;;57.47;40.80;;;22.50;91.70;;;;;;5032179;28;20037;-75
2022/08/18 11:43:12;;;;;;;52.85;38.20;;;22.40;91.90;;;;;;5029389;28;20038;-75
2022/08/18 11:45:51;;;;;;;59.40;41.55;;;22.40;91.60;;;;;;5029422;28;20025;-75
2022/08/18 11:48:42;;;;;;;52.90;36.95;;;22.40;91.60;;;;;;5030410;28;20021;-75
2022/08/18 11:51:09;;;;;;;54.15;38.33;;;22.40;91.60;;;;;;5030341;28;20432;-75
2022/08/18 11:53:42;;;;;;;50.35;37.03;;;22.40;91.60;;;;;;5037767;28;20029;-77
2022/08/18 11:56:20;;;;;;;56.75;38.42;;;22.40;91.60;;;;;;5022568;28;20054;-76
2022/08/18 11:59:23;;;;;;;50.22;35.17;;;22.50;91.80;;;;;;5037028;28;20029;-84
2022/08/18 12:01:58;;;;;;;52.08;38.45;;;22.40;92.60;;;;;;5030800;28;20025;-75
2022/08/18 12:04:39;;;;;;;50.95;37.88;;;22.50;92.40;;;;;;5032182;28;20074;-76
2022/08/18 12:07:13;;;;;;;54.95;38.35;;;22.50;91.90;;;;;;5026802;28;20108;-76
2022/08/18 12:10:22;;;;;;;51.72;36.95;;;22.50;92.20;;;;;;5028583;28;20025;-76
2022/08/18 12:12:51;;;;;;;48.15;36.95;;;22.50;92.00;;;;;;5036564;28;20112;-76
2022/08/18 12:15:17;;;;;;;49.92;38.72;;;22.40;91.70;;;;;;5027224;28;20034;-76
2022/08/18 12:17:45;;;;;;;46.92;35.47;;;22.40;91.70;;;;;;5036531;28;20083;-75
2022/08/18 12:20:12;;;;;;;52.90;38.20;;;22.40;91.70;;;;;;5028826;28;20029;-75
2022/08/18 12:22:40;;;;;;;49.78;36.72;;;22.40;91.70;;;;;;5037118;28;20090;-74
2022/08/18 12:25:09;;;;;;;43.97;33.60;;;22.40;91.70;;;;;;5039829;28;20033;-75
2022/08/18 12:27:35;;;;;;;49.88;35.38;;;22.40;91.70;;;;;;5033552;28;20060;-74
2022/08/18 12:30:01;;;;;;;47.92;34.08;;;22.40;91.70;;;;;;5023733;28;20434;-74
2022/08/18 12:32:29;;;;;;;48.88;36.15;;;22.40;91.60;;;;;;5031986;28;20437;-81
2022/08/18 12:34:55;;;;;;;34.65;26.15;;;22.50;92.10;;;;;;5035967;28;20037;-79
2022/08/18 12:37:24;;;;;;;34.42;24.65;;;22.80;92.60;;;;;;5035605;28;20087;-80
2022/08/18 12:39:51;;;;;;;34.72;24.75;;;23.10;92.80;;;;;;5044187;28;20040;-81
2022/08/18 12:42:18;;;;;;;35.92;25.13;;;23.40;92.00;;;;;;5025222;28;20032;-80
2022/08/18 12:44:46;;;;;;;36.53;24.63;;;23.60;91.50;;;;;;5033308;28;20029;-80
2022/08/18 12:47:18;;;;;;;30.05;22.10;;;23.50;91.30;;;;;;5030889;28;20032;-79
2022/08/18 12:49:44;;;;;;;23.95;18.52;;;23.70;91.30;;;;;;5030969;28;20026;-79
2022/08/18 12:52:10;;;;;;;28.75;20.85;;;23.80;90.90;;;;;;5035459;28;20034;-80
2022/08/18 12:54:36;;;;;;;26.70;21.10;;;23.80;89.60;;;;;;5037193;28;20105;-80
2022/08/18 12:57:07;;;;;;;29.15;19.10;;;23.90;90.20;;;;;;5033160;28;20021;-80
2022/08/18 12:59:36;;;;;;;24.77;19.23;;;23.90;90.80;;;;;;5032451;28;20036;-80
2022/08/18 13:02:02;;;;;;;28.92;20.48;;;23.90;90.60;;;;;;5031799;28;20022;-80
2022/08/18 13:04:28;;;;;;;29.77;19.33;;;23.80;90.10;;;;;;5038285;28;20516;-80
2022/08/18 13:06:57;;;;;;;22.10;17.52;;;23.70;90.20;;;;;;5048529;28;20032;-80
2022/08/18 13:09:23;;;;;;;21.23;16.80;;;23.70;90.50;;;;;;5038480;28;20075;-80
2022/08/18 13:11:50;;;;;;;23.67;17.33;;;23.70;90.60;;;;;;5043994;28;20033;-80
2022/08/18 13:14:16;;;;;;;20.38;16.23;;;23.60;90.50;;;;;;5036253;28;20032;-81
2022/08/18 13:16:44;;;;;;;24.00;16.63;;;23.70;90.70;;;;;;5047945;28;20085;-81
2022/08/18 13:19:12;;;;;;;19.88;16.48;;;23.70;90.40;;;;;;5049460;28;20061;-82
2022/08/18 13:21:39;;;;;;;20.55;15.68;;;23.70;90.70;;;;;;5054798;28;20112;-83
2022/08/18 13:24:08;;;;;;;20.98;16.42;;;23.80;90.50;;;;;;5039311;28;20029;-80
2022/08/18 13:26:37;;;;;;;22.33;15.65;;;24.00;90.30;;;;;;5041560;28;20504;-80
2022/08/18 13:29:04;;;;;;;23.10;16.05;;;24.00;90.60;;;;;;5036098;28;20025;-80